sensor_id;sensor_type;location;lat;lon;timestamp;P1;durP1;ratioP1;P2;durP2;ratioP2
10295;SDS011;5193;51.032;6.356;2023-04-02T00:00:15;5.77;;;4.77;;
10295;SDS011;5193;51.032;6.356;2023-04-02T00:02:46;5.40;;;4.90;;
10295;SDS011;5193;51.032;6.356;2023-04-02T00:07:54;5.67;;;4.53;;
10295;SDS011;5193;51.032;6.356;2023-04-02T00:10:26;5.37;;;4.87;;
10295;SDS011;5193;51.032;6.356;2023-04-02T00:15:48;5.77;;;4.73;;
10295;SDS011;5193;51.032;6.356;2023-04-02T00:18:16;5.70;;;5.20;;
10295;SDS011;5193;51.032;6.356;2023-04-02T00:20:47;6.23;;;5.63;;
10295;SDS011;5193;51.032;6.356;2023-04-02T00:23:20;5.40;;;4.90;;
10295;SDS011;5193;51.032;6.356;2023-04-02T00:25:46;5.83;;;5.23;;
10295;SDS011;5193;51.032;6.356;2023-04-02T00:28:13;5.57;;;5.00;;
10295;SDS011;5193;51.032;6.356;2023-04-02T00:30:53;6.23;;;5.50;;
10295;SDS011;5193;51.032;6.356;2023-04-02T00:33:22;4.50;;;3.83;;
10295;SDS011;5193;51.032;6.356;2023-04-02T00:35:52;4.50;;;4.10;;
10295;SDS011;5193;51.032;6.356;2023-04-02T00:38:24;5.70;;;5.20;;
10295;SDS011;5193;51.032;6.356;2023-04-02T00:40:57;5.13;;;4.63;;
10295;SDS011;5193;51.032;6.356;2023-04-02T00:43:27;4.87;;;4.37;;
10295;SDS011;5193;51.032;6.356;2023-04-02T00:45:56;4.80;;;4.40;;
10295;SDS011;5193;51.032;6.356;2023-04-02T00:53:48;5.93;;;4.37;;
10295;SDS011;5193;51.032;6.356;2023-04-02T00:56:18;4.07;;;3.60;;
10295;SDS011;5193;51.032;6.356;2023-04-02T00:58:52;5.13;;;4.63;;
10295;SDS011;5193;51.032;6.356;2023-04-02T01:01:25;4.93;;;4.43;;
10295;SDS011;5193;51.032;6.356;2023-04-02T01:03:56;4.40;;;4.00;;
10295;SDS011;5193;51.032;6.356;2023-04-02T01:06:27;5.33;;;4.83;;
10295;SDS011;5193;51.032;6.356;2023-04-02T01:11:53;7.23;;;5.20;;
10295;SDS011;5193;51.032;6.356;2023-04-02T01:23:02;5.80;;;4.47;;
10295;SDS011;5193;51.032;6.356;2023-04-02T01:26:19;4.17;;;3.73;;
10295;SDS011;5193;51.032;6.356;2023-04-02T01:31:25;7.13;;;5.37;;
10295;SDS011;5193;51.032;6.356;2023-04-02T01:33:51;5.93;;;5.33;;
10295;SDS011;5193;51.032;6.356;2023-04-02T01:36:23;5.33;;;4.83;;
10295;SDS011;5193;51.032;6.356;2023-04-02T01:39:22;7.03;;;6.10;;
10295;SDS011;5193;51.032;6.356;2023-04-02T01:41:46;6.50;;;5.87;;
10295;SDS011;5193;51.032;6.356;2023-04-02T01:44:20;6.23;;;5.57;;
10295;SDS011;5193;51.032;6.356;2023-04-02T01:47:11;5.20;;;4.70;;
10295;SDS011;5193;51.032;6.356;2023-04-02T01:49:40;5.57;;;4.57;;
10295;SDS011;5193;51.032;6.356;2023-04-02T01:52:07;6.13;;;4.40;;
10295;SDS011;5193;51.032;6.356;2023-04-02T01:54:37;3.90;;;3.43;;
10295;SDS011;5193;51.032;6.356;2023-04-02T01:57:04;6.27;;;5.50;;
10295;SDS011;5193;51.032;6.356;2023-04-02T01:59:32;5.23;;;4.50;;
10295;SDS011;5193;51.032;6.356;2023-04-02T02:02:00;6.07;;;5.47;;
10295;SDS011;5193;51.032;6.356;2023-04-02T02:04:25;4.43;;;3.80;;
10295;SDS011;5193;51.032;6.356;2023-04-02T02:06:51;5.57;;;5.00;;
10295;SDS011;5193;51.032;6.356;2023-04-02T02:09:21;4.97;;;4.47;;
10295;SDS011;5193;51.032;6.356;2023-04-02T02:11:51;5.60;;;5.10;;
10295;SDS011;5193;51.032;6.356;2023-04-02T02:14:17;6.17;;;5.20;;
10295;SDS011;5193;51.032;6.356;2023-04-02T02:16:49;6.20;;;4.83;;
10295;SDS011;5193;51.032;6.356;2023-04-02T02:21:52;6.40;;;5.80;;
10295;SDS011;5193;51.032;6.356;2023-04-02T02:24:33;6.03;;;5.43;;
10295;SDS011;5193;51.032;6.356;2023-04-02T02:27:07;7.70;;;6.90;;
10295;SDS011;5193;51.032;6.356;2023-04-02T02:29:45;9.60;;;8.60;;
10295;SDS011;5193;51.032;6.356;2023-04-02T02:32:13;9.23;;;7.77;;
10295;SDS011;5193;51.032;6.356;2023-04-02T02:34:48;9.27;;;8.37;;
10295;SDS011;5193;51.032;6.356;2023-04-02T02:37:29;8.43;;;7.53;;
10295;SDS011;5193;51.032;6.356;2023-04-02T02:40:02;8.87;;;6.93;;
10295;SDS011;5193;51.032;6.356;2023-04-02T02:42:37;6.47;;;5.03;;
10295;SDS011;5193;51.032;6.356;2023-04-02T02:45:10;6.03;;;5.23;;
10295;SDS011;5193;51.032;6.356;2023-04-02T02:47:40;5.20;;;4.70;;
10295;SDS011;5193;51.032;6.356;2023-04-02T02:50:10;5.30;;;4.80;;
10295;SDS011;5193;51.032;6.356;2023-04-02T02:52:45;5.00;;;4.50;;
10295;SDS011;5193;51.032;6.356;2023-04-02T02:55:15;5.80;;;4.97;;
10295;SDS011;5193;51.032;6.356;2023-04-02T02:57:47;7.10;;;4.30;;
10295;SDS011;5193;51.032;6.356;2023-04-02T03:00:22;4.20;;;3.80;;
10295;SDS011;5193;51.032;6.356;2023-04-02T03:02:49;4.10;;;3.33;;
10295;SDS011;5193;51.032;6.356;2023-04-02T03:05:19;5.80;;;4.57;;
10295;SDS011;5193;51.032;6.356;2023-04-02T03:07:47;5.57;;;4.47;;
10295;SDS011;5193;51.032;6.356;2023-04-02T03:10:20;6.33;;;5.73;;
10295;SDS011;5193;51.032;6.356;2023-04-02T03:12:55;7.97;;;6.93;;
10295;SDS011;5193;51.032;6.356;2023-04-02T03:15:39;7.43;;;6.20;;
10295;SDS011;5193;51.032;6.356;2023-04-02T03:23:46;8.63;;;4.60;;
10295;SDS011;5193;51.032;6.356;2023-04-02T03:26:18;4.40;;;4.00;;
10295;SDS011;5193;51.032;6.356;2023-04-02T03:29:02;4.97;;;4.50;;
10295;SDS011;5193;51.032;6.356;2023-04-02T03:31:39;6.23;;;5.60;;
10295;SDS011;5193;51.032;6.356;2023-04-02T03:34:14;5.17;;;4.67;;
10295;SDS011;5193;51.032;6.356;2023-04-02T03:36:56;5.00;;;4.50;;
10295;SDS011;5193;51.032;6.356;2023-04-02T03:39:56;5.00;;;4.50;;
10295;SDS011;5193;51.032;6.356;2023-04-02T03:42:27;4.40;;;4.00;;
10295;SDS011;5193;51.032;6.356;2023-04-02T03:45:02;3.50;;;3.20;;
10295;SDS011;5193;51.032;6.356;2023-04-02T03:47:51;4.10;;;3.70;;
10295;SDS011;5193;51.032;6.356;2023-04-02T03:50:29;4.00;;;3.70;;
10295;SDS011;5193;51.032;6.356;2023-04-02T03:53:01;4.67;;;3.60;;
10295;SDS011;5193;51.032;6.356;2023-04-02T03:55:29;3.87;;;3.47;;
10295;SDS011;5193;51.032;6.356;2023-04-02T03:58:06;4.73;;;3.57;;
10295;SDS011;5193;51.032;6.356;2023-04-02T04:00:50;3.20;;;2.90;;
10295;SDS011;5193;51.032;6.356;2023-04-02T04:03:31;4.03;;;3.63;;
10295;SDS011;5193;51.032;6.356;2023-04-02T04:06:08;4.00;;;3.60;;
10295;SDS011;5193;51.032;6.356;2023-04-02T04:08:50;4.63;;;4.23;;
10295;SDS011;5193;51.032;6.356;2023-04-02T04:11:24;6.50;;;4.80;;
10295;SDS011;5193;51.032;6.356;2023-04-02T04:14:06;5.50;;;5.00;;
10295;SDS011;5193;51.032;6.356;2023-04-02T04:16:41;7.47;;;4.03;;
10295;SDS011;5193;51.032;6.356;2023-04-02T04:19:24;5.97;;;4.70;;
10295;SDS011;5193;51.032;6.356;2023-04-02T04:22:15;6.17;;;4.73;;
10295;SDS011;5193;51.032;6.356;2023-04-02T04:24:57;4.77;;;4.03;;
10295;SDS011;5193;51.032;6.356;2023-04-02T04:27:34;4.83;;;4.33;;
10295;SDS011;5193;51.032;6.356;2023-04-02T04:30:27;5.13;;;4.63;;
10295;SDS011;5193;51.032;6.356;2023-04-02T04:33:02;5.10;;;4.60;;
10295;SDS011;5193;51.032;6.356;2023-04-02T04:35:38;4.80;;;4.40;;
10295;SDS011;5193;51.032;6.356;2023-04-02T04:38:14;5.50;;;4.87;;
10295;SDS011;5193;51.032;6.356;2023-04-02T04:40:53;5.60;;;5.10;;
10295;SDS011;5193;51.032;6.356;2023-04-02T04:46:08;8.50;;;6.67;;
10295;SDS011;5193;51.032;6.356;2023-04-02T04:51:22;6.50;;;5.83;;
10295;SDS011;5193;51.032;6.356;2023-04-02T04:53:52;6.67;;;6.00;;
10295;SDS011;5193;51.032;6.356;2023-04-02T04:56:23;6.40;;;5.80;;
10295;SDS011;5193;51.032;6.356;2023-04-02T04:58:52;6.33;;;4.50;;
10295;SDS011;5193;51.032;6.356;2023-04-02T05:01:37;3.67;;;3.30;;
10295;SDS011;5193;51.032;6.356;2023-04-02T05:04:32;4.53;;;3.87;;
10295;SDS011;5193;51.032;6.356;2023-04-02T05:07:14;7.03;;;5.33;;
10295;SDS011;5193;51.032;6.356;2023-04-02T05:10:03;8.40;;;6.10;;
10295;SDS011;5193;51.032;6.356;2023-04-02T05:18:19;6.30;;;5.40;;
10295;SDS011;5193;51.032;6.356;2023-04-02T05:20:59;6.13;;;5.37;;
10295;SDS011;5193;51.032;6.356;2023-04-02T05:26:14;6.67;;;5.97;;
10295;SDS011;5193;51.032;6.356;2023-04-02T05:31:58;5.63;;;4.27;;
10295;SDS011;5193;51.032;6.356;2023-04-02T05:34:03;6.03;;;5.43;;
10295;SDS011;5193;51.032;6.356;2023-04-02T05:36:29;8.60;;;7.30;;
10295;SDS011;5193;51.032;6.356;2023-04-02T05:38:56;6.10;;;5.50;;
10295;SDS011;5193;51.032;6.356;2023-04-02T05:41:33;5.97;;;5.33;;
10295;SDS011;5193;51.032;6.356;2023-04-02T05:44:15;6.17;;;5.53;;
10295;SDS011;5193;51.032;6.356;2023-04-02T05:49:29;9.37;;;6.30;;
10295;SDS011;5193;51.032;6.356;2023-04-02T05:52:03;9.23;;;7.30;;
10295;SDS011;5193;51.032;6.356;2023-04-02T05:54:37;8.83;;;7.13;;
10295;SDS011;5193;51.032;6.356;2023-04-02T05:57:09;6.53;;;5.60;;
10295;SDS011;5193;51.032;6.356;2023-04-02T05:59:39;6.00;;;5.40;;
10295;SDS011;5193;51.032;6.356;2023-04-02T06:04:58;5.33;;;4.63;;
10295;SDS011;5193;51.032;6.356;2023-04-02T06:10:10;9.07;;;7.17;;
10295;SDS011;5193;51.032;6.356;2023-04-02T06:13:15;12.20;;;10.03;;
10295;SDS011;5193;51.032;6.356;2023-04-02T06:15:35;14.23;;;8.63;;
10295;SDS011;5193;51.032;6.356;2023-04-02T06:20:51;10.70;;;7.87;;
10295;SDS011;5193;51.032;6.356;2023-04-02T06:24:00;9.13;;;7.63;;
10295;SDS011;5193;51.032;6.356;2023-04-02T06:28:42;9.80;;;7.90;;
10295;SDS011;5193;51.032;6.356;2023-04-02T06:31:15;9.60;;;6.20;;
10295;SDS011;5193;51.032;6.356;2023-04-02T06:33:46;6.67;;;5.53;;
10295;SDS011;5193;51.032;6.356;2023-04-02T06:36:16;9.47;;;7.13;;
10295;SDS011;5193;51.032;6.356;2023-04-02T06:38:42;10.10;;;6.63;;
10295;SDS011;5193;51.032;6.356;2023-04-02T06:41:13;11.47;;;7.03;;
10295;SDS011;5193;51.032;6.356;2023-04-02T06:43:46;11.17;;;7.87;;
10295;SDS011;5193;51.032;6.356;2023-04-02T06:46:20;7.33;;;6.23;;
10295;SDS011;5193;51.032;6.356;2023-04-02T06:48:51;9.33;;;5.57;;
10295;SDS011;5193;51.032;6.356;2023-04-02T06:51:20;9.83;;;6.23;;
10295;SDS011;5193;51.032;6.356;2023-04-02T06:53:49;9.60;;;7.00;;
10295;SDS011;5193;51.032;6.356;2023-04-02T06:59:01;9.77;;;6.77;;
10295;SDS011;5193;51.032;6.356;2023-04-02T07:01:29;9.90;;;6.63;;
10295;SDS011;5193;51.032;6.356;2023-04-02T07:03:59;10.27;;;6.90;;
10295;SDS011;5193;51.032;6.356;2023-04-02T07:06:25;11.40;;;6.73;;
10295;SDS011;5193;51.032;6.356;2023-04-02T07:08:51;8.07;;;6.27;;
10295;SDS011;5193;51.032;6.356;2023-04-02T07:11:18;9.23;;;6.30;;
10295;SDS011;5193;51.032;6.356;2023-04-02T07:13:46;8.23;;;6.17;;
10295;SDS011;5193;51.032;6.356;2023-04-02T07:16:13;8.97;;;6.00;;
10295;SDS011;5193;51.032;6.356;2023-04-02T07:18:40;7.67;;;5.50;;
10295;SDS011;5193;51.032;6.356;2023-04-02T07:21:06;9.50;;;5.93;;
10295;SDS011;5193;51.032;6.356;2023-04-02T07:23:32;11.00;;;7.70;;
10295;SDS011;5193;51.032;6.356;2023-04-02T07:25:58;8.77;;;7.03;;
10295;SDS011;5193;51.032;6.356;2023-04-02T07:28:24;8.47;;;7.37;;
10295;SDS011;5193;51.032;6.356;2023-04-02T07:30:50;11.00;;;7.47;;
10295;SDS011;5193;51.032;6.356;2023-04-02T07:33:16;11.33;;;8.27;;
10295;SDS011;5193;51.032;6.356;2023-04-02T07:35:44;12.80;;;8.83;;
10295;SDS011;5193;51.032;6.356;2023-04-02T07:38:10;11.13;;;7.93;;
10295;SDS011;5193;51.032;6.356;2023-04-02T07:40:36;8.70;;;6.50;;
10295;SDS011;5193;51.032;6.356;2023-04-02T07:43:02;13.67;;;7.50;;
10295;SDS011;5193;51.032;6.356;2023-04-02T07:45:28;8.80;;;5.87;;
10295;SDS011;5193;51.032;6.356;2023-04-02T07:47:55;10.10;;;6.60;;
10295;SDS011;5193;51.032;6.356;2023-04-02T07:50:21;11.50;;;8.13;;
10295;SDS011;5193;51.032;6.356;2023-04-02T07:52:46;12.20;;;7.47;;
10295;SDS011;5193;51.032;6.356;2023-04-02T07:55:13;12.53;;;6.90;;
10295;SDS011;5193;51.032;6.356;2023-04-02T07:57:47;9.93;;;8.20;;
10295;SDS011;5193;51.032;6.356;2023-04-02T08:00:14;9.97;;;8.07;;
10295;SDS011;5193;51.032;6.356;2023-04-02T08:02:41;13.57;;;8.23;;
10295;SDS011;5193;51.032;6.356;2023-04-02T08:05:07;13.30;;;8.07;;
10295;SDS011;5193;51.032;6.356;2023-04-02T08:07:33;15.53;;;7.77;;
10295;SDS011;5193;51.032;6.356;2023-04-02T08:09:59;9.87;;;7.43;;
10295;SDS011;5193;51.032;6.356;2023-04-02T08:12:25;11.00;;;6.97;;
10295;SDS011;5193;51.032;6.356;2023-04-02T08:14:51;10.30;;;6.60;;
10295;SDS011;5193;51.032;6.356;2023-04-02T08:17:16;8.80;;;5.93;;
10295;SDS011;5193;51.032;6.356;2023-04-02T08:19:42;15.33;;;7.60;;
10295;SDS011;5193;51.032;6.356;2023-04-02T08:22:08;11.80;;;7.43;;
10295;SDS011;5193;51.032;6.356;2023-04-02T08:24:34;7.40;;;5.87;;
10295;SDS011;5193;51.032;6.356;2023-04-02T08:27:00;11.07;;;6.37;;
10295;SDS011;5193;51.032;6.356;2023-04-02T08:29:26;9.30;;;5.67;;
10295;SDS011;5193;51.032;6.356;2023-04-02T08:31:56;7.13;;;5.13;;
10295;SDS011;5193;51.032;6.356;2023-04-02T08:34:22;8.43;;;6.00;;
10295;SDS011;5193;51.032;6.356;2023-04-02T08:36:48;8.73;;;5.83;;
10295;SDS011;5193;51.032;6.356;2023-04-02T08:39:13;9.37;;;5.53;;
10295;SDS011;5193;51.032;6.356;2023-04-02T08:41:50;12.80;;;5.83;;
10295;SDS011;5193;51.032;6.356;2023-04-02T08:46:55;7.30;;;5.10;;
10295;SDS011;5193;51.032;6.356;2023-04-02T08:49:28;9.77;;;5.53;;
10295;SDS011;5193;51.032;6.356;2023-04-02T08:51:55;5.97;;;4.37;;
10295;SDS011;5193;51.032;6.356;2023-04-02T08:54:23;9.10;;;6.13;;
10295;SDS011;5193;51.032;6.356;2023-04-02T08:56:54;7.63;;;5.30;;
10295;SDS011;5193;51.032;6.356;2023-04-02T08:59:29;7.27;;;5.57;;
10295;SDS011;5193;51.032;6.356;2023-04-02T09:04:46;7.77;;;5.10;;
10295;SDS011;5193;51.032;6.356;2023-04-02T09:07:13;6.57;;;4.70;;
10295;SDS011;5193;51.032;6.356;2023-04-02T09:09:40;9.93;;;5.17;;
10295;SDS011;5193;51.032;6.356;2023-04-02T09:12:28;8.27;;;4.77;;
10295;SDS011;5193;51.032;6.356;2023-04-02T09:17:29;8.97;;;5.70;;
10295;SDS011;5193;51.032;6.356;2023-04-02T09:22:25;7.87;;;4.97;;
10295;SDS011;5193;51.032;6.356;2023-04-02T09:24:53;7.63;;;4.77;;
10295;SDS011;5193;51.032;6.356;2023-04-02T09:27:20;8.20;;;5.17;;
10295;SDS011;5193;51.032;6.356;2023-04-02T09:29:50;6.27;;;4.73;;
10295;SDS011;5193;51.032;6.356;2023-04-02T09:32:29;7.97;;;5.10;;
10295;SDS011;5193;51.032;6.356;2023-04-02T09:35:20;7.20;;;4.20;;
10295;SDS011;5193;51.032;6.356;2023-04-02T09:37:47;8.50;;;4.47;;
10295;SDS011;5193;51.032;6.356;2023-04-02T09:41:07;7.43;;;5.07;;
10295;SDS011;5193;51.032;6.356;2023-04-02T09:43:30;8.90;;;4.27;;
10295;SDS011;5193;51.032;6.356;2023-04-02T09:45:57;6.87;;;4.77;;
10295;SDS011;5193;51.032;6.356;2023-04-02T09:51:21;7.17;;;4.30;;
10295;SDS011;5193;51.032;6.356;2023-04-02T09:53:48;6.90;;;4.50;;
10295;SDS011;5193;51.032;6.356;2023-04-02T09:56:26;5.50;;;4.30;;
10295;SDS011;5193;51.032;6.356;2023-04-02T09:59:03;7.60;;;4.80;;
10295;SDS011;5193;51.032;6.356;2023-04-02T10:01:35;7.60;;;4.43;;
10295;SDS011;5193;51.032;6.356;2023-04-02T10:07:03;6.97;;;4.53;;
10295;SDS011;5193;51.032;6.356;2023-04-02T10:09:34;7.93;;;4.80;;
10295;SDS011;5193;51.032;6.356;2023-04-02T10:12:02;7.40;;;5.37;;
10295;SDS011;5193;51.032;6.356;2023-04-02T10:14:34;4.83;;;3.80;;
10295;SDS011;5193;51.032;6.356;2023-04-02T10:17:14;9.13;;;4.77;;
10295;SDS011;5193;51.032;6.356;2023-04-02T10:19:51;8.97;;;5.40;;
10295;SDS011;5193;51.032;6.356;2023-04-02T10:22:20;8.40;;;5.80;;
10295;SDS011;5193;51.032;6.356;2023-04-02T10:24:47;8.47;;;4.67;;
10295;SDS011;5193;51.032;6.356;2023-04-02T10:35:56;9.03;;;6.20;;
10295;SDS011;5193;51.032;6.356;2023-04-02T10:38:41;10.43;;;6.63;;
10295;SDS011;5193;51.032;6.356;2023-04-02T10:52:26;11.63;;;6.93;;
10295;SDS011;5193;51.032;6.356;2023-04-02T10:54:56;9.77;;;5.83;;
10295;SDS011;5193;51.032;6.356;2023-04-02T10:57:32;7.80;;;6.20;;
10295;SDS011;5193;51.032;6.356;2023-04-02T11:03:03;7.23;;;5.83;;
10295;SDS011;5193;51.032;6.356;2023-04-02T11:08:17;7.07;;;5.70;;
10295;SDS011;5193;51.032;6.356;2023-04-02T11:13:29;7.27;;;5.80;;
10295;SDS011;5193;51.032;6.356;2023-04-02T11:16:00;6.93;;;5.67;;
10295;SDS011;5193;51.032;6.356;2023-04-02T11:18:28;5.90;;;5.30;;
10295;SDS011;5193;51.032;6.356;2023-04-02T11:21:01;10.43;;;5.73;;
10295;SDS011;5193;51.032;6.356;2023-04-02T11:23:32;6.93;;;5.20;;
10295;SDS011;5193;51.032;6.356;2023-04-02T11:31:40;6.33;;;4.60;;
10295;SDS011;5193;51.032;6.356;2023-04-02T11:34:10;9.33;;;6.10;;
10295;SDS011;5193;51.032;6.356;2023-04-02T11:39:43;5.63;;;4.30;;
10295;SDS011;5193;51.032;6.356;2023-04-02T11:42:29;6.40;;;3.90;;
10295;SDS011;5193;51.032;6.356;2023-04-02T11:50:33;4.53;;;4.00;;
10295;SDS011;5193;51.032;6.356;2023-04-02T11:53:01;7.30;;;4.13;;
10295;SDS011;5193;51.032;6.356;2023-04-02T11:55:29;5.00;;;3.30;;
10295;SDS011;5193;51.032;6.356;2023-04-02T12:06:23;4.20;;;3.17;;
10295;SDS011;5193;51.032;6.356;2023-04-02T12:11:47;4.53;;;2.93;;
10295;SDS011;5193;51.032;6.356;2023-04-02T12:17:02;6.37;;;3.37;;
10295;SDS011;5193;51.032;6.356;2023-04-02T12:19:29;4.20;;;3.20;;
10295;SDS011;5193;51.032;6.356;2023-04-02T12:21:55;5.40;;;3.33;;
10295;SDS011;5193;51.032;6.356;2023-04-02T12:24:23;9.90;;;3.77;;
10295;SDS011;5193;51.032;6.356;2023-04-02T12:27:08;5.30;;;3.73;;
10295;SDS011;5193;51.032;6.356;2023-04-02T12:29:40;6.33;;;3.97;;
10295;SDS011;5193;51.032;6.356;2023-04-02T12:32:18;4.33;;;3.70;;
10295;SDS011;5193;51.032;6.356;2023-04-02T12:34:50;5.03;;;3.90;;
10295;SDS011;5193;51.032;6.356;2023-04-02T12:37:19;7.60;;;4.10;;
10295;SDS011;5193;51.032;6.356;2023-04-02T12:39:53;5.63;;;3.73;;
10295;SDS011;5193;51.032;6.356;2023-04-02T12:42:32;4.70;;;3.60;;
10295;SDS011;5193;51.032;6.356;2023-04-02T12:44:59;8.77;;;5.80;;
10295;SDS011;5193;51.032;6.356;2023-04-02T12:47:25;5.37;;;3.83;;
10295;SDS011;5193;51.032;6.356;2023-04-02T12:49:52;5.80;;;3.77;;
10295;SDS011;5193;51.032;6.356;2023-04-02T12:52:20;3.53;;;3.23;;
10295;SDS011;5193;51.032;6.356;2023-04-02T12:54:53;4.10;;;3.33;;
10295;SDS011;5193;51.032;6.356;2023-04-02T12:59:49;2.93;;;2.63;;
10295;SDS011;5193;51.032;6.356;2023-04-02T13:02:59;5.77;;;3.73;;
10295;SDS011;5193;51.032;6.356;2023-04-02T13:05:08;5.07;;;3.00;;
10295;SDS011;5193;51.032;6.356;2023-04-02T13:07:35;3.30;;;2.60;;
10295;SDS011;5193;51.032;6.356;2023-04-02T13:10:05;5.13;;;3.20;;
10295;SDS011;5193;51.032;6.356;2023-04-02T13:12:58;5.10;;;3.13;;
10295;SDS011;5193;51.032;6.356;2023-04-02T13:15:26;4.67;;;3.20;;
10295;SDS011;5193;51.032;6.356;2023-04-02T13:18:12;5.80;;;3.10;;
10295;SDS011;5193;51.032;6.356;2023-04-02T13:20:56;5.83;;;3.30;;
10295;SDS011;5193;51.032;6.356;2023-04-02T13:25:55;4.73;;;3.37;;
10295;SDS011;5193;51.032;6.356;2023-04-02T13:28:23;5.50;;;3.70;;
10295;SDS011;5193;51.032;6.356;2023-04-02T13:30:49;7.17;;;3.53;;
10295;SDS011;5193;51.032;6.356;2023-04-02T13:33:14;4.20;;;3.47;;
10295;SDS011;5193;51.032;6.356;2023-04-02T13:35:41;6.43;;;3.77;;
10295;SDS011;5193;51.032;6.356;2023-04-02T13:38:07;3.97;;;3.10;;
10295;SDS011;5193;51.032;6.356;2023-04-02T13:40:33;3.93;;;2.83;;
10295;SDS011;5193;51.032;6.356;2023-04-02T13:43:01;3.57;;;3.00;;
10295;SDS011;5193;51.032;6.356;2023-04-02T13:45:28;4.53;;;3.13;;
10295;SDS011;5193;51.032;6.356;2023-04-02T13:47:57;4.03;;;3.63;;
10295;SDS011;5193;51.032;6.356;2023-04-02T13:50:25;4.30;;;2.87;;
10295;SDS011;5193;51.032;6.356;2023-04-02T13:52:52;4.57;;;3.10;;
10295;SDS011;5193;51.032;6.356;2023-04-02T13:55:21;4.10;;;3.27;;
10295;SDS011;5193;51.032;6.356;2023-04-02T13:57:49;6.13;;;3.27;;
10295;SDS011;5193;51.032;6.356;2023-04-02T14:00:15;6.63;;;3.20;;
10295;SDS011;5193;51.032;6.356;2023-04-02T14:03:03;3.43;;;2.80;;
10295;SDS011;5193;51.032;6.356;2023-04-02T14:08:57;4.37;;;2.90;;
10295;SDS011;5193;51.032;6.356;2023-04-02T14:16:37;2.80;;;2.60;;
10295;SDS011;5193;51.032;6.356;2023-04-02T14:22:21;4.33;;;2.20;;
10295;SDS011;5193;51.032;6.356;2023-04-02T14:27:40;3.07;;;2.60;;
10295;SDS011;5193;51.032;6.356;2023-04-02T14:30:26;4.40;;;2.60;;
10295;SDS011;5193;51.032;6.356;2023-04-02T14:35:43;4.77;;;2.60;;
10295;SDS011;5193;51.032;6.356;2023-04-02T14:38:30;3.03;;;2.57;;
10295;SDS011;5193;51.032;6.356;2023-04-02T14:41:21;5.23;;;2.77;;
10295;SDS011;5193;51.032;6.356;2023-04-02T14:43:58;3.70;;;2.63;;
10295;SDS011;5193;51.032;6.356;2023-04-02T14:46:30;3.63;;;2.83;;
10295;SDS011;5193;51.032;6.356;2023-04-02T14:48:59;4.13;;;2.47;;
10295;SDS011;5193;51.032;6.356;2023-04-02T14:53:58;3.10;;;2.17;;
10295;SDS011;5193;51.032;6.356;2023-04-02T14:56:46;2.70;;;2.10;;
10295;SDS011;5193;51.032;6.356;2023-04-02T15:04:52;2.97;;;2.20;;
10295;SDS011;5193;51.032;6.356;2023-04-02T15:07:23;3.07;;;2.40;;
10295;SDS011;5193;51.032;6.356;2023-04-02T15:10:04;3.73;;;2.37;;
10295;SDS011;5193;51.032;6.356;2023-04-02T15:12:40;4.67;;;2.60;;
10295;SDS011;5193;51.032;6.356;2023-04-02T15:17:58;3.43;;;2.40;;
10295;SDS011;5193;51.032;6.356;2023-04-02T15:20:25;2.87;;;2.13;;
10295;SDS011;5193;51.032;6.356;2023-04-02T15:23:08;4.10;;;2.27;;
10295;SDS011;5193;51.032;6.356;2023-04-02T15:31:45;4.80;;;2.30;;
10295;SDS011;5193;51.032;6.356;2023-04-02T15:42:51;3.67;;;2.20;;
10295;SDS011;5193;51.032;6.356;2023-04-02T15:45:25;2.20;;;1.93;;
10295;SDS011;5193;51.032;6.356;2023-04-02T15:56:51;4.27;;;3.03;;
10295;SDS011;5193;51.032;6.356;2023-04-02T16:02:27;4.77;;;2.10;;
10295;SDS011;5193;51.032;6.356;2023-04-02T16:05:08;2.80;;;1.80;;
10295;SDS011;5193;51.032;6.356;2023-04-02T16:07:47;2.57;;;2.30;;
10295;SDS011;5193;51.032;6.356;2023-04-02T16:12:48;2.03;;;1.70;;
10295;SDS011;5193;51.032;6.356;2023-04-02T16:15:17;2.43;;;1.83;;
10295;SDS011;5193;51.032;6.356;2023-04-02T16:17:57;2.77;;;1.83;;
10295;SDS011;5193;51.032;6.356;2023-04-02T16:20:27;5.97;;;3.27;;
10295;SDS011;5193;51.032;6.356;2023-04-02T16:22:59;4.37;;;1.80;;
10295;SDS011;5193;51.032;6.356;2023-04-02T16:25:30;3.37;;;1.50;;
10295;SDS011;5193;51.032;6.356;2023-04-02T16:30:49;5.77;;;3.10;;
10295;SDS011;5193;51.032;6.356;2023-04-02T16:39:00;2.90;;;2.20;;
10295;SDS011;5193;51.032;6.356;2023-04-02T16:45:08;4.03;;;2.40;;
10295;SDS011;5193;51.032;6.356;2023-04-02T16:47:53;3.97;;;2.53;;
10295;SDS011;5193;51.032;6.356;2023-04-02T16:50:52;4.17;;;2.10;;
10295;SDS011;5193;51.032;6.356;2023-04-02T16:53:40;4.03;;;2.80;;
10295;SDS011;5193;51.032;6.356;2023-04-02T17:10:32;5.53;;;2.17;;
10295;SDS011;5193;51.032;6.356;2023-04-02T17:16:08;4.67;;;2.20;;
10295;SDS011;5193;51.032;6.356;2023-04-02T17:18:48;4.97;;;1.90;;
10295;SDS011;5193;51.032;6.356;2023-04-02T17:21:20;3.33;;;1.93;;
10295;SDS011;5193;51.032;6.356;2023-04-02T17:23:56;3.23;;;1.90;;
10295;SDS011;5193;51.032;6.356;2023-04-02T17:26:27;6.63;;;1.90;;
10295;SDS011;5193;51.032;6.356;2023-04-02T17:28:56;3.00;;;1.70;;
10295;SDS011;5193;51.032;6.356;2023-04-02T17:31:24;5.57;;;1.97;;
10295;SDS011;5193;51.032;6.356;2023-04-02T17:33:54;2.90;;;2.20;;
10295;SDS011;5193;51.032;6.356;2023-04-02T17:39:17;6.07;;;2.50;;
10295;SDS011;5193;51.032;6.356;2023-04-02T17:45:03;3.23;;;2.40;;
10295;SDS011;5193;51.032;6.356;2023-04-02T18:04:40;5.03;;;2.70;;
10295;SDS011;5193;51.032;6.356;2023-04-02T18:07:31;7.37;;;2.97;;
10295;SDS011;5193;51.032;6.356;2023-04-02T18:12:54;7.03;;;3.30;;
10295;SDS011;5193;51.032;6.356;2023-04-02T18:18:04;8.07;;;4.37;;
10295;SDS011;5193;51.032;6.356;2023-04-02T18:20:46;7.47;;;4.10;;
10295;SDS011;5193;51.032;6.356;2023-04-02T18:34:50;5.47;;;3.00;;
10295;SDS011;5193;51.032;6.356;2023-04-02T18:41:00;5.63;;;2.90;;
10295;SDS011;5193;51.032;6.356;2023-04-02T18:46:29;5.40;;;3.10;;
10295;SDS011;5193;51.032;6.356;2023-04-02T18:49:27;4.37;;;2.70;;
10295;SDS011;5193;51.032;6.356;2023-04-02T18:52:08;8.33;;;4.07;;
10295;SDS011;5193;51.032;6.356;2023-04-02T18:54:41;7.53;;;4.07;;
10295;SDS011;5193;51.032;6.356;2023-04-02T18:57:38;7.23;;;3.00;;
10295;SDS011;5193;51.032;6.356;2023-04-02T19:02:59;8.70;;;3.80;;
10295;SDS011;5193;51.032;6.356;2023-04-02T19:05:40;9.13;;;3.87;;
10295;SDS011;5193;51.032;6.356;2023-04-02T19:08:57;9.03;;;3.97;;
10295;SDS011;5193;51.032;6.356;2023-04-02T19:11:19;7.17;;;3.83;;
10295;SDS011;5193;51.032;6.356;2023-04-02T19:13:59;5.17;;;2.93;;
10295;SDS011;5193;51.032;6.356;2023-04-02T19:19:13;5.20;;;2.83;;
10295;SDS011;5193;51.032;6.356;2023-04-02T19:24:22;4.90;;;2.13;;
10295;SDS011;5193;51.032;6.356;2023-04-02T19:27:06;3.43;;;2.00;;
10295;SDS011;5193;51.032;6.356;2023-04-02T19:32:58;6.07;;;2.23;;
10295;SDS011;5193;51.032;6.356;2023-04-02T19:35:46;6.70;;;2.20;;
10295;SDS011;5193;51.032;6.356;2023-04-02T19:44:19;6.70;;;3.33;;
10295;SDS011;5193;51.032;6.356;2023-04-02T19:46:49;8.77;;;2.73;;
10295;SDS011;5193;51.032;6.356;2023-04-02T19:49:33;4.20;;;2.00;;
10295;SDS011;5193;51.032;6.356;2023-04-02T19:52:02;2.53;;;2.27;;
10295;SDS011;5193;51.032;6.356;2023-04-02T19:54:28;5.50;;;2.10;;
10295;SDS011;5193;51.032;6.356;2023-04-02T19:56:54;3.03;;;1.90;;
10295;SDS011;5193;51.032;6.356;2023-04-02T19:59:24;4.10;;;2.13;;
10295;SDS011;5193;51.032;6.356;2023-04-02T20:01:50;3.27;;;2.17;;
10295;SDS011;5193;51.032;6.356;2023-04-02T20:04:31;3.67;;;2.40;;
10295;SDS011;5193;51.032;6.356;2023-04-02T20:06:59;2.50;;;1.90;;
10295;SDS011;5193;51.032;6.356;2023-04-02T20:09:25;6.33;;;2.33;;
10295;SDS011;5193;51.032;6.356;2023-04-02T20:11:53;8.97;;;2.50;;
10295;SDS011;5193;51.032;6.356;2023-04-02T20:14:22;4.90;;;2.43;;
10295;SDS011;5193;51.032;6.356;2023-04-02T20:16:47;4.47;;;2.60;;
10295;SDS011;5193;51.032;6.356;2023-04-02T20:19:22;4.50;;;2.60;;
10295;SDS011;5193;51.032;6.356;2023-04-02T20:21:49;4.83;;;2.33;;
10295;SDS011;5193;51.032;6.356;2023-04-02T20:24:21;4.00;;;2.67;;
10295;SDS011;5193;51.032;6.356;2023-04-02T20:26:50;5.77;;;2.53;;
10295;SDS011;5193;51.032;6.356;2023-04-02T20:29:16;2.90;;;2.23;;